YWHA

Details ICAO YWHA (WYA)
Name Whyalla
Region Australia
Timezone Australia/Adelaide (UTC+10.5)
Plans Departing 9
Arriving 9
Stats Elevation 41 ft / 12 m (AMSL)
Location -33.057162° 137.515871°
Runways 2
Magnetic Variation 7.131° E
Sunrise 2017-12-15 19:37:07 UTC / 2017-12-16 06:07:07 Local
Sunset 2017-12-16 09:56:25 UTC / 2017-12-16 20:26:25 Local
Advertisement - Login to hide

Runways

ID Width Length Bearing (true) Bearing (mag) Surface Threshold Offset Overrun Length
05 164 ft / 50 m 4,659 ft / 1,420 m 54.36° 47.23° Dirt 0 ft / 0 m 0 ft / 0 m
17 164 ft / 50 m 5,540 ft / 1,689 m 174.30° 167.17° Asphalt 0 ft / 0 m 0 ft / 0 m
23 164 ft / 50 m 4,659 ft / 1,420 m 234.36° 227.23° Dirt 0 ft / 0 m 0 ft / 0 m
35 164 ft / 50 m 5,540 ft / 1,689 m 354.30° 347.17° Asphalt 0 ft / 0 m 0 ft / 0 m

Map

Weather


0- 5 10 15 20 25 30 35+ Temperature / ° C

Clouds and Precipitation
Forecast for 2017-12-16 00:00 UTC. Updated 6 minutes ago

Ground ~20,000 ft ~40,000 ft Winds

METAR

YWHA 152100Z AUTO 16007KT 9999 // NCD 20/15 Q1014

TAF

Not found

Frequencies

Unicom 126.90 MHz CTAF
Warning: Do not use this data for real-world aviation or navigation. No guarantee of current accuracy is given.